Miami, Florida
Traffic Map
Current Weather Conditions
Miami, Florida
Broken Clouds
Broken Clouds
24°
Feels Like: 24°
Wind Chill: 24° Ceiling: 4500
Heat Index: 24° Visibility: 10mi
Dew Point: 12° Wind: 17mph
Humidity: 48% Direction: 90° (E)
Pressure: 30.21in Gusts: 0mph
Raw Report DataKMIA 011653Z 09015KT 10SM BKN045 24/12 A3021 RMK AO2 SLP230 T02390122
Traffic Incident Summary
Active as of:
Severity:
Category:
InformationThere was an issue retrieving the traffic information for this location. Please try a different location or try again shortly.
Advertisements
Track Severe Weather on mobile